createdAt,value
2022-10-20T00:01:12.935Z,1.50
2022-10-20T00:03:39.971Z,1.67
2022-10-20T00:06:15.172Z,1.58
2022-10-20T00:08:43.083Z,1.60
2022-10-20T00:11:11.625Z,1.73
2022-10-20T00:13:39.573Z,1.58
2022-10-20T00:16:07.336Z,1.67
2022-10-20T00:18:34.279Z,1.80
2022-10-20T00:21:04.604Z,1.90
2022-10-20T00:23:31.520Z,2.55
2022-10-20T00:26:14.276Z,1.60
2022-10-20T00:28:41.314Z,1.35
2022-10-20T00:31:08.600Z,1.65
2022-10-20T00:33:35.888Z,1.58
2022-10-20T00:36:04.906Z,1.90
2022-10-20T00:38:32.248Z,1.60
2022-10-20T00:41:03.338Z,1.80
2022-10-20T00:43:55.590Z,1.35
2022-10-20T00:46:40.788Z,1.25
2022-10-20T00:49:18.079Z,1.70
2022-10-20T00:51:45.168Z,1.42
2022-10-20T00:54:20.376Z,1.60
2022-10-20T00:56:49.520Z,1.63
2022-10-20T00:59:19.999Z,1.73
2022-10-20T01:01:47.146Z,1.85
2022-10-20T01:04:14.996Z,1.75
2022-10-20T01:06:41.765Z,1.58
2022-10-20T01:09:08.909Z,1.50
2022-10-20T01:11:42.676Z,1.80
2022-10-20T01:14:21.839Z,1.67
2022-10-20T01:16:57.516Z,1.77
2022-10-20T01:19:24.254Z,1.48
2022-10-20T01:22:16.732Z,1.88
2022-10-20T01:25:06.289Z,1.90
2022-10-20T01:27:49.025Z,2.03
2022-10-20T01:30:22.435Z,2.05
2022-10-20T01:32:54.255Z,1.77
2022-10-20T01:35:31.376Z,1.75
2022-10-20T01:38:10.587Z,2.08
2022-10-20T01:40:54.401Z,1.83
2022-10-20T01:43:23.799Z,2.20
2022-10-20T01:45:52.093Z,2.00
2022-10-20T01:48:23.872Z,1.95
2022-10-20T01:50:51.257Z,2.20
2022-10-20T01:53:18.091Z,2.03
2022-10-20T01:55:45.011Z,1.45
2022-10-20T01:58:17.636Z,2.05
2022-10-20T02:00:45.314Z,2.20
2022-10-20T02:03:42.594Z,2.15
2022-10-20T02:06:18.512Z,2.10
2022-10-20T02:08:50.945Z,1.80
2022-10-20T02:11:24.756Z,2.65
2022-10-20T02:13:54.539Z,2.00
2022-10-20T02:16:29.784Z,2.53
2022-10-20T02:21:29.736Z,2.15
2022-10-20T02:24:00.704Z,2.00
2022-10-20T02:26:27.645Z,2.17
2022-10-20T02:29:00.475Z,2.10
2022-10-20T02:31:27.485Z,2.08
2022-10-20T02:33:56.651Z,2.40
2022-10-20T02:36:27.782Z,2.15
2022-10-20T02:38:54.802Z,2.05
2022-10-20T02:41:21.847Z,2.30
2022-10-20T02:43:48.631Z,2.60
2022-10-20T02:46:17.132Z,2.38
2022-10-20T02:48:44.176Z,2.53
2022-10-20T02:51:11.820Z,2.47
2022-10-20T02:53:38.934Z,2.33
2022-10-20T02:56:06.285Z,2.65
2022-10-20T02:58:33.082Z,2.50
2022-10-20T03:00:59.858Z,2.53
2022-10-20T03:03:26.672Z,3.30
2022-10-20T03:05:53.535Z,3.28
2022-10-20T03:08:20.414Z,3.22
2022-10-20T03:10:47.203Z,2.65
2022-10-20T03:13:15.578Z,3.13
2022-10-20T03:15:42.590Z,3.03
2022-10-20T03:18:09.340Z,2.80
2022-10-20T03:20:36.212Z,3.38
2022-10-20T03:23:02.979Z,3.38
2022-10-20T03:25:31.491Z,2.92
2022-10-20T03:27:59.134Z,3.13
2022-10-20T03:30:26.094Z,3.22
2022-10-20T03:32:53.247Z,3.35
2022-10-20T03:35:20.062Z,4.00
2022-10-20T03:37:46.878Z,4.00
2022-10-20T03:40:13.663Z,4.50
2022-10-20T03:42:40.447Z,4.03
2022-10-20T03:45:08.421Z,4.13
2022-10-20T03:47:35.544Z,3.85
2022-10-20T03:50:02.435Z,4.10
2022-10-20T03:52:29.234Z,3.72
2022-10-20T03:54:56.117Z,3.20
2022-10-20T03:57:22.976Z,3.92
2022-10-20T03:59:49.778Z,4.00
2022-10-20T04:02:42.174Z,3.80
2022-10-20T04:05:11.486Z,3.53
2022-10-20T04:07:38.229Z,4.70
2022-10-20T04:10:05.224Z,3.95
2022-10-20T04:12:31.977Z,4.50
2022-10-20T04:14:58.787Z,4.25
2022-10-20T04:17:25.541Z,4.20
2022-10-20T04:19:52.335Z,4.65
2022-10-20T04:22:19.172Z,4.22
2022-10-20T04:24:45.974Z,4.20
2022-10-20T04:27:12.763Z,4.35
2022-10-20T04:29:39.757Z,5.15
2022-10-20T04:32:06.844Z,4.40
2022-10-20T04:34:33.737Z,5.18
2022-10-20T04:37:00.501Z,4.65
2022-10-20T04:39:27.314Z,4.78
2022-10-20T04:41:54.233Z,5.30
2022-10-20T04:44:21.177Z,4.88
2022-10-20T04:46:48.139Z,3.88
2022-10-20T04:49:15.454Z,5.32
2022-10-20T04:51:42.274Z,4.40
2022-10-20T04:54:09.093Z,4.72
2022-10-20T04:56:35.947Z,5.45
2022-10-20T04:59:03.504Z,4.28
2022-10-20T05:01:31.818Z,4.60
2022-10-20T05:03:59.023Z,5.05
2022-10-20T05:06:28.095Z,5.28
2022-10-20T05:09:00.526Z,4.50
2022-10-20T05:11:29.775Z,5.20
2022-10-20T05:13:56.937Z,5.15
2022-10-20T05:16:24.154Z,5.38
2022-10-20T05:18:52.292Z,5.57
2022-10-20T05:21:24.786Z,5.60
2022-10-20T05:23:59.804Z,4.95
2022-10-20T05:26:28.192Z,5.68
2022-10-20T05:28:55.090Z,5.50
2022-10-20T05:31:23.620Z,5.68
2022-10-20T05:33:52.536Z,5.30
2022-10-20T05:36:21.912Z,4.68
2022-10-20T05:38:50.865Z,5.47
2022-10-20T05:41:20.346Z,5.63
2022-10-20T05:43:51.869Z,4.50
2022-10-20T05:46:19.953Z,5.57
2022-10-20T05:48:47.393Z,4.65
2022-10-20T05:51:19.925Z,6.20
2022-10-20T05:53:47.266Z,6.28
2022-10-20T05:56:17.209Z,6.05
2022-10-20T05:58:44.363Z,6.18
2022-10-20T06:01:18.325Z,6.38
2022-10-20T06:03:53.056Z,5.78
2022-10-20T06:06:21.646Z,6.03
2022-10-20T06:08:48.782Z,6.20
2022-10-20T06:11:16.438Z,6.03
2022-10-20T06:13:45.996Z,6.68
2022-10-20T06:16:19.673Z,6.32
2022-10-20T06:18:46.507Z,7.18
2022-10-20T06:21:22.047Z,6.55
2022-10-20T06:23:49.316Z,5.30
2022-10-20T06:26:18.730Z,5.63
2022-10-20T06:28:47.147Z,6.35
2022-10-20T06:31:23.044Z,7.43
2022-10-20T06:33:50.544Z,5.93
2022-10-20T06:36:18.446Z,6.38
2022-10-20T06:38:45.598Z,6.15
2022-10-20T06:41:16.096Z,6.18
2022-10-20T06:43:44.119Z,6.25
2022-10-20T06:46:14.451Z,5.63
2022-10-20T06:48:41.461Z,6.45
2022-10-20T06:51:12.387Z,6.60
2022-10-20T06:53:42.687Z,6.55
2022-10-20T06:56:18.593Z,6.10
2022-10-20T06:58:48.496Z,6.32
2022-10-20T07:01:26.688Z,6.90
2022-10-20T07:03:56.200Z,4.88
2022-10-20T07:06:29.415Z,6.50
2022-10-20T07:08:56.731Z,5.78
2022-10-20T07:11:26.384Z,5.05
2022-10-20T07:13:53.507Z,5.35
2022-10-20T07:16:23.175Z,5.72
2022-10-20T07:18:50.430Z,5.70
2022-10-20T07:21:20.283Z,5.95
2022-10-20T07:23:48.441Z,4.78
2022-10-20T07:26:22.065Z,4.90
2022-10-20T07:28:55.826Z,5.03
2022-10-20T07:31:32.947Z,4.57
2022-10-20T07:34:13.613Z,5.40
2022-10-20T07:36:43.595Z,5.20
2022-10-20T07:39:13.179Z,4.97
2022-10-20T07:41:40.176Z,5.32
2022-10-20T07:44:07.820Z,5.32
2022-10-20T07:46:34.882Z,4.80
2022-10-20T07:51:48.572Z,4.95
2022-10-20T07:54:15.468Z,4.80
2022-10-20T07:56:43.662Z,5.38
2022-10-20T07:59:13.477Z,4.13
2022-10-20T08:01:40.413Z,4.30
2022-10-20T08:04:07.345Z,4.85
2022-10-20T08:06:34.777Z,3.63
2022-10-20T08:09:02.003Z,4.93
2022-10-20T08:11:28.903Z,4.28
2022-10-20T08:13:55.760Z,4.30
2022-10-20T08:16:27.975Z,3.78
2022-10-20T08:21:24.552Z,4.00
2022-10-20T08:23:51.885Z,3.70
2022-10-20T08:26:24.147Z,3.95
2022-10-20T08:28:52.830Z,3.70
2022-10-20T08:31:19.851Z,3.53
2022-10-20T08:33:51.415Z,3.90
2022-10-20T08:36:19.380Z,4.15
2022-10-20T08:38:46.202Z,3.33
2022-10-20T08:41:22.889Z,3.95
2022-10-20T08:43:52.656Z,3.92
2022-10-20T08:46:22.983Z,3.42
2022-10-20T08:48:50.413Z,3.28
2022-10-20T08:51:23.429Z,4.00
2022-10-20T08:53:53.649Z,3.15
2022-10-20T08:56:23.768Z,3.15
2022-10-20T08:58:50.721Z,4.38
2022-10-20T09:01:26.554Z,3.60
2022-10-20T09:03:59.504Z,3.47
2022-10-20T09:06:26.458Z,3.28
2022-10-20T09:08:54.828Z,3.28
2022-10-20T09:11:27.554Z,3.35
2022-10-20T09:13:54.878Z,3.47
2022-10-20T09:16:42.067Z,2.67
2022-10-20T09:19:23.338Z,2.88
2022-10-20T09:21:54.501Z,2.85
2022-10-20T09:24:22.907Z,2.92
2022-10-20T09:26:59.816Z,2.67
2022-10-20T09:29:40.316Z,3.17
2022-10-20T09:32:56.832Z,3.05
2022-10-20T09:35:24.181Z,2.65
2022-10-20T09:38:22.619Z,2.70
2022-10-20T09:41:13.507Z,3.15
2022-10-20T09:43:54.469Z,2.47
2022-10-20T09:46:29.986Z,2.38
2022-10-20T09:48:57.211Z,2.65
2022-10-20T09:51:26.802Z,2.42
2022-10-20T09:54:06.960Z,2.40
2022-10-20T09:56:42.104Z,2.45
2022-10-20T09:59:23.516Z,2.28
2022-10-20T10:01:59.794Z,2.42
2022-10-20T10:04:31.361Z,2.42
2022-10-20T10:06:58.204Z,2.90
2022-10-20T10:09:31.954Z,2.13
2022-10-20T10:12:19.664Z,2.72
2022-10-20T10:15:01.479Z,2.40
2022-10-20T10:17:34.043Z,2.00
2022-10-20T10:20:12.732Z,2.17
2022-10-20T10:22:41.443Z,2.45
2022-10-20T10:25:18.077Z,2.00
2022-10-20T10:28:00.425Z,2.17
2022-10-20T10:30:33.873Z,2.33
2022-10-20T10:33:01.421Z,2.45
2022-10-20T10:35:44.482Z,2.47
2022-10-20T10:38:14.431Z,2.00
2022-10-20T10:40:45.539Z,2.33
2022-10-20T10:43:34.151Z,2.35
2022-10-20T10:46:12.016Z,2.25
2022-10-20T10:49:19.083Z,2.08
2022-10-20T10:51:53.373Z,2.22
2022-10-20T10:54:48.910Z,2.40
2022-10-20T10:57:31.854Z,2.00
2022-10-20T11:00:02.449Z,2.75
2022-10-20T11:02:47.837Z,2.15
2022-10-20T11:05:17.410Z,2.40
2022-10-20T11:08:07.874Z,1.95
2022-10-20T11:11:06.751Z,2.20
2022-10-20T11:14:15.223Z,2.40
2022-10-20T14:15:02.343Z,5.85
2022-10-20T14:17:29.423Z,6.05
2022-10-20T14:20:29.308Z,6.50
2022-10-20T14:22:58.442Z,6.45
2022-10-20T14:25:26.640Z,6.75
2022-10-20T14:27:55.764Z,6.15
2022-10-20T14:30:24.015Z,6.22
2022-10-20T14:32:51.534Z,6.43
2022-10-20T14:35:42.255Z,6.80
2022-10-20T14:38:30.186Z,6.90
2022-10-20T14:40:58.583Z,6.95
2022-10-20T14:43:42.974Z,6.38
2022-10-20T14:46:13.091Z,7.30
2022-10-20T14:48:49.561Z,6.30
2022-10-20T14:51:40.306Z,5.53
2022-10-20T14:57:07.680Z,6.93
2022-10-20T14:59:38.378Z,7.30
2022-10-20T15:02:13.503Z,6.25
2022-10-20T15:04:42.080Z,7.75
2022-10-20T15:07:33.714Z,6.38
2022-10-20T15:10:09.492Z,6.53
2022-10-20T15:12:36.642Z,5.95
2022-10-20T15:15:21.605Z,6.82
2022-10-20T15:17:53.759Z,7.68
2022-10-20T15:20:39.893Z,5.55
2022-10-20T15:23:13.026Z,7.25
2022-10-20T15:25:50.647Z,6.57
2022-10-20T15:28:37.939Z,7.05
2022-10-20T15:31:22.948Z,7.28
2022-10-20T15:33:51.067Z,6.22
2022-10-20T15:36:31.825Z,7.18
2022-10-20T15:38:59.467Z,6.72
2022-10-20T15:41:33.618Z,6.80
2022-10-20T15:44:22.043Z,6.90
2022-10-20T15:46:50.993Z,7.53
2022-10-20T15:49:17.827Z,6.47
2022-10-20T15:51:46.491Z,6.28
2022-10-20T15:54:15.789Z,6.60
2022-10-20T15:56:43.040Z,6.80
2022-10-20T15:59:09.920Z,7.35
2022-10-20T16:01:37.198Z,7.15
2022-10-20T16:04:18.174Z,6.80
2022-10-20T16:06:45.227Z,6.47
2022-10-20T16:09:15.139Z,6.85
2022-10-20T16:11:43.488Z,6.53
2022-10-20T16:14:10.716Z,7.25
2022-10-20T16:16:37.584Z,6.20
2022-10-20T16:19:04.513Z,7.60
2022-10-20T16:21:31.312Z,6.72
2022-10-20T16:23:58.355Z,7.00
2022-10-20T16:26:25.165Z,7.18
2022-10-20T16:28:51.966Z,7.00
2022-10-20T16:31:19.574Z,7.57
2022-10-20T16:33:46.953Z,6.28
2022-10-20T16:36:16.345Z,7.63
2022-10-20T16:38:44.135Z,6.70
2022-10-20T16:41:13.620Z,7.63
2022-10-20T16:43:43.328Z,8.13
2022-10-20T16:46:12.269Z,7.03
2022-10-20T16:48:41.507Z,7.65
2022-10-20T16:51:11.067Z,7.10
2022-10-20T16:53:38.079Z,6.82
2022-10-20T16:56:06.122Z,7.15
2022-10-20T16:58:33.083Z,6.85
2022-10-20T17:01:08.502Z,7.35
2022-10-20T17:03:37.122Z,7.68
2022-10-20T17:06:07.011Z,6.47
2022-10-20T17:08:35.200Z,7.47
2022-10-20T17:11:08.288Z,6.78
2022-10-20T17:13:36.856Z,6.50
2022-10-20T17:16:06.840Z,7.18
2022-10-20T17:18:33.743Z,7.03
2022-10-20T17:21:01.064Z,6.90
2022-10-20T17:23:30.994Z,7.05
2022-10-20T17:26:02.967Z,7.13
2022-10-20T17:28:31.188Z,8.15
2022-10-20T17:30:58.360Z,7.05
2022-10-20T17:33:29.543Z,6.55
2022-10-20T17:36:00.866Z,7.07
2022-10-20T17:38:28.662Z,7.07
2022-10-20T17:40:55.860Z,7.13
2022-10-20T17:43:23.073Z,7.70
2022-10-20T17:46:05.022Z,7.28
2022-10-20T17:48:32.387Z,8.27
2022-10-20T17:51:01.042Z,6.75
2022-10-20T17:53:27.921Z,7.30
2022-10-20T17:55:54.774Z,6.93
2022-10-20T17:58:21.676Z,7.43
2022-10-20T18:00:56.599Z,8.18
2022-10-20T18:03:23.925Z,7.68
2022-10-20T18:05:50.706Z,8.23
2022-10-20T18:08:17.514Z,7.32
2022-10-20T18:10:44.325Z,7.03
2022-10-20T18:13:11.219Z,6.93
2022-10-20T18:15:43.101Z,8.05
2022-10-20T18:18:09.957Z,8.02
2022-10-20T18:20:36.823Z,8.25
2022-10-20T18:23:03.669Z,7.30
2022-10-20T18:25:30.489Z,9.35
2022-10-20T18:27:57.356Z,7.82
2022-10-20T18:30:24.181Z,8.10
2022-10-20T18:32:51.400Z,8.82
2022-10-20T18:37:55.948Z,7.93
2022-10-20T18:40:23.154Z,8.65
2022-10-20T18:42:50.028Z,8.40
2022-10-20T18:45:16.913Z,9.18
2022-10-20T18:47:45.050Z,8.65
2022-10-20T18:50:12.194Z,8.40
2022-10-20T18:52:38.992Z,9.07
2022-10-20T18:55:07.043Z,7.93
2022-10-20T18:57:34.874Z,9.15
2022-10-20T19:00:03.322Z,7.70
2022-10-20T19:02:31.231Z,8.23
2022-10-20T19:04:58.419Z,9.10
2022-10-20T19:07:25.381Z,8.05
2022-10-20T19:09:55.481Z,9.70
2022-10-20T19:12:22.529Z,6.97
2022-10-20T19:14:49.831Z,8.52
2022-10-20T19:17:16.582Z,8.50
2022-10-20T19:19:44.635Z,7.40
2022-10-20T19:22:11.505Z,8.35
2022-10-20T19:24:40.622Z,9.35
2022-10-20T19:27:25.612Z,8.25
2022-10-20T19:29:55.898Z,8.88
2022-10-20T19:32:22.772Z,7.75
2022-10-20T19:34:49.571Z,8.57
2022-10-20T19:37:16.399Z,9.27
2022-10-20T19:39:43.337Z,8.45
2022-10-20T19:42:11.357Z,8.98
2022-10-20T19:44:38.695Z,8.95
2022-10-20T19:47:06.067Z,10.10
2022-10-20T19:49:33.015Z,9.05
2022-10-20T19:52:00.206Z,8.88
2022-10-20T19:54:28.017Z,9.85
2022-10-20T19:56:54.881Z,8.98
2022-10-20T19:59:22.123Z,8.25
2022-10-20T20:01:49.937Z,8.82
2022-10-20T20:04:16.754Z,8.00
2022-10-20T20:06:43.634Z,9.70
2022-10-20T20:09:12.327Z,8.15
2022-10-20T20:11:40.005Z,8.27
2022-10-20T20:14:10.259Z,9.23
2022-10-20T20:16:37.374Z,8.50
2022-10-20T20:19:04.605Z,8.55
2022-10-20T20:21:31.788Z,9.73
2022-10-20T20:24:01.651Z,9.70
2022-10-20T20:26:36.166Z,8.20
2022-10-20T20:29:03.913Z,9.98
2022-10-20T20:31:30.936Z,9.57
2022-10-20T20:33:57.915Z,9.45
2022-10-20T20:36:27.117Z,8.15
2022-10-20T20:38:57.480Z,9.02
2022-10-20T20:41:26.777Z,8.65
2022-10-20T20:43:53.724Z,8.50
2022-10-20T20:46:22.605Z,9.23
2022-10-20T20:48:50.575Z,8.88
2022-10-20T20:51:17.593Z,8.55
2022-10-20T20:53:44.683Z,7.93
2022-10-20T20:56:15.405Z,9.38
2022-10-20T20:58:45.466Z,7.82
2022-10-20T21:01:18.096Z,9.27
2022-10-20T21:03:45.781Z,9.02
2022-10-20T21:06:15.047Z,9.05
2022-10-20T21:08:43.539Z,9.02
2022-10-20T21:11:13.445Z,8.32
2022-10-20T21:13:41.899Z,8.43
2022-10-20T21:16:15.807Z,9.55
2022-10-20T21:18:45.798Z,9.07
2022-10-20T21:21:21.522Z,9.27
2022-10-20T21:23:48.957Z,8.25
2022-10-20T21:26:18.419Z,9.13
2022-10-20T21:28:45.818Z,9.27
2022-10-20T21:31:15.813Z,11.27
2022-10-20T21:33:43.021Z,10.65
2022-10-20T21:36:12.428Z,9.65
2022-10-20T21:38:40.555Z,8.90
2022-10-20T21:41:15.221Z,9.38
2022-10-20T21:43:46.727Z,9.90
2022-10-20T21:46:16.963Z,10.25
2022-10-20T21:48:45.444Z,9.57
2022-10-20T21:51:21.334Z,11.65
2022-10-20T21:53:48.603Z,9.05
2022-10-20T21:56:16.184Z,9.15
2022-10-20T21:58:43.135Z,10.18
2022-10-20T22:01:18.365Z,9.43
2022-10-20T22:03:46.924Z,10.00
2022-10-20T22:06:16.040Z,9.40
2022-10-20T22:08:46.078Z,9.25
2022-10-20T22:11:19.083Z,9.38
2022-10-20T22:13:46.928Z,10.00
2022-10-20T22:16:16.484Z,9.85
2022-10-20T22:18:43.483Z,8.05
2022-10-20T22:21:16.566Z,10.27
2022-10-20T22:23:44.881Z,9.50
2022-10-20T22:26:12.648Z,9.70
2022-10-20T22:28:40.077Z,9.52
2022-10-20T22:31:07.500Z,8.40
2022-10-20T22:33:34.512Z,7.78
2022-10-20T22:36:01.470Z,9.07
2022-10-20T22:38:28.401Z,8.00
2022-10-20T22:41:02.576Z,8.00
2022-10-20T22:43:30.917Z,9.18
2022-10-20T22:45:57.885Z,9.07
2022-10-20T22:48:25.110Z,9.02
2022-10-20T22:50:51.961Z,9.00
2022-10-20T22:53:19.326Z,8.10
2022-10-20T22:55:46.389Z,8.57
2022-10-20T22:58:13.313Z,9.35
2022-10-20T23:00:42.022Z,8.02
2022-10-20T23:03:09.155Z,8.85
2022-10-20T23:05:37.115Z,8.23
2022-10-20T23:08:04.109Z,8.38
2022-10-20T23:10:31.002Z,9.05
2022-10-20T23:12:57.863Z,9.73
2022-10-20T23:15:24.667Z,9.38
2022-10-20T23:17:51.463Z,10.02
2022-10-20T23:20:18.276Z,9.07
2022-10-20T23:22:45.690Z,9.93
2022-10-20T23:25:12.440Z,8.98
2022-10-20T23:27:39.585Z,8.23
2022-10-20T23:30:07.277Z,9.45
2022-10-20T23:32:34.051Z,9.63
2022-10-20T23:35:01.019Z,8.85
2022-10-20T23:37:27.771Z,9.13
2022-10-20T23:39:54.624Z,9.88
2022-10-20T23:42:21.375Z,9.48
2022-10-20T23:44:48.192Z,9.38
2022-10-20T23:47:14.969Z,8.82
2022-10-20T23:49:41.999Z,8.43
2022-10-20T23:52:08.766Z,8.23
2022-10-20T23:54:35.592Z,9.57
2022-10-20T23:57:02.608Z,9.15
2022-10-20T23:59:29.397Z,9.05
